Time;durP1;ratioP1;P1;durP2;ratioP2;P2;SDS_P1;SDS_P2;PMS_P1;PMS_P2;Temp;Humidity;BMP_temperature;BMP_pressure;BME280_temperature;BME280_humidity;BME280_pressure;Samples;Min_cycle;Max_cycle;Signal;HPM_P1;HPM_P2
2023/05/06 00:02:12;;;;;;;10.40;5.55;;;;;;;-145.41;100.00;58600.66;4962584;28;20032;-78
2023/05/06 00:04:38;;;;;;;10.20;5.97;;;;;;;-145.41;100.00;58600.66;4963333;28;20035;-78
2023/05/06 00:07:03;;;;;;;10.90;5.72;;;;;;;-145.41;100.00;58600.66;4961531;28;20058;-78
2023/05/06 00:09:29;;;;;;;9.77;6.03;;;;;;;-145.41;100.00;58600.66;4964411;28;20034;-78
2023/05/06 00:11:54;;;;;;;13.82;5.93;;;;;;;-145.41;100.00;58600.66;4962990;28;20039;-78
2023/05/06 00:14:19;;;;;;;10.82;5.28;;;;;;;-145.41;100.00;58600.66;4963573;28;20050;-79
2023/05/06 00:16:45;;;;;;;11.05;5.90;;;;;;;-145.41;100.00;58600.66;4962928;28;20035;-78
2023/05/06 00:19:10;;;;;;;10.90;5.80;;;;;;;-145.41;100.00;58600.66;4962118;28;20084;-78
2023/05/06 00:21:36;;;;;;;9.32;5.55;;;;;;;-145.41;100.00;58600.66;4961960;28;20350;-79
2023/05/06 00:24:01;;;;;;;13.05;5.80;;;;;;;-145.41;100.00;58600.66;4962424;28;20042;-79
2023/05/06 00:26:27;;;;;;;11.63;5.68;;;;;;;-145.41;100.00;58600.66;4963232;28;20599;-78
2023/05/06 00:28:52;;;;;;;12.52;6.32;;;;;;;-145.41;100.00;58600.66;4969204;28;20047;-79
2023/05/06 00:31:17;;;;;;;9.60;6.13;;;;;;;-145.41;100.00;58600.66;4963556;28;20046;-78
2023/05/06 00:33:43;;;;;;;12.75;6.75;;;;;;;-145.41;100.00;58600.66;4969624;28;20146;-79
2023/05/06 00:36:08;;;;;;;9.68;5.72;;;;;;;-145.41;100.00;58600.66;4965246;28;20079;-78
2023/05/06 00:38:34;;;;;;;10.32;5.65;;;;;;;-145.41;100.00;58600.66;4965616;28;20050;-79
2023/05/06 00:41:00;;;;;;;8.23;5.68;;;;;;;-145.41;100.00;58600.66;4955006;28;20042;-78
2023/05/06 00:43:25;;;;;;;9.27;5.45;;;;;;;-145.41;100.00;58600.66;4967239;28;20115;-78
2023/05/06 00:45:51;;;;;;;9.13;5.85;;;;;;;-145.41;100.00;58600.66;4968526;28;20027;-78
2023/05/06 00:48:17;;;;;;;11.02;5.88;;;;;;;-145.41;100.00;58600.66;4970649;28;20441;-78
2023/05/06 00:50:43;;;;;;;8.32;5.90;;;;;;;-145.41;100.00;58600.66;4963926;28;20062;-79
2023/05/06 00:53:09;;;;;;;12.18;6.40;;;;;;;-145.41;100.00;58600.66;4967502;28;20073;-78
2023/05/06 00:55:35;;;;;;;9.57;6.45;;;;;;;-145.41;100.00;58600.66;4963833;28;20041;-78
2023/05/06 00:58:01;;;;;;;12.00;6.03;;;;;;;-145.41;100.00;58600.66;4966208;28;20034;-79
2023/05/06 01:00:26;;;;;;;9.85;6.20;;;;;;;-145.41;100.00;58600.66;4963751;28;20047;-78
2023/05/06 01:02:51;;;;;;;12.68;5.97;;;;;;;-145.41;100.00;58600.66;4958129;28;20109;-79
2023/05/06 01:05:20;;;;;;;13.02;6.00;;;;;;;-145.41;100.00;58600.66;4967175;28;20496;-79
2023/05/06 01:07:52;;;;;;;11.20;6.10;;;;;;;-145.41;100.00;58600.66;4964377;28;20040;-78
2023/05/06 01:10:32;;;;;;;11.18;6.22;;;;;;;-145.41;100.00;58600.66;4965325;28;20501;-78
2023/05/06 01:13:10;;;;;;;12.05;6.47;;;;;;;-145.41;100.00;58600.66;4963633;28;20065;-79
2023/05/06 01:15:40;;;;;;;9.15;4.93;;;;;;;-145.41;100.00;58600.66;4964187;28;20078;-79
2023/05/06 01:18:15;;;;;;;10.90;6.07;;;;;;;-145.41;100.00;58600.66;4966025;28;20499;-78
2023/05/06 01:20:43;;;;;;;13.88;5.72;;;;;;;-145.41;100.00;58600.66;4975011;28;20065;-78
2023/05/06 01:23:11;;;;;;;13.52;5.70;;;;;;;-145.41;100.00;58600.66;4964504;28;20050;-78
2023/05/06 01:25:37;;;;;;;9.43;5.82;;;;;;;-145.41;100.00;58600.66;4971261;28;20042;-78
2023/05/06 01:28:03;;;;;;;10.85;5.85;;;;;;;-145.41;100.00;58600.66;4965909;28;20414;-79
2023/05/06 01:30:34;;;;;;;11.45;5.57;;;;;;;-145.41;100.00;58600.66;4964196;28;20039;-79
2023/05/06 01:33:08;;;;;;;12.02;6.32;;;;;;;-145.41;100.00;58600.66;4968574;28;20035;-78
2023/05/06 01:35:33;;;;;;;10.55;5.65;;;;;;;-145.41;100.00;58600.66;4966973;28;20031;-78
2023/05/06 01:38:16;;;;;;;9.13;5.50;;;;;;;-145.41;100.00;58600.66;4969989;28;20505;-79
2023/05/06 01:40:43;;;;;;;8.13;5.55;;;;;;;-145.41;100.00;58600.66;4964534;28;20039;-79
2023/05/06 01:43:11;;;;;;;7.68;5.82;;;;;;;-145.41;100.00;58600.66;4964719;28;20554;-78
2023/05/06 01:45:38;;;;;;;10.27;5.63;;;;;;;-145.41;100.00;58600.66;4963549;28;20557;-79
2023/05/06 01:48:04;;;;;;;9.02;5.90;;;;;;;-145.41;100.00;58600.66;4962831;28;20035;-79
2023/05/06 01:50:31;;;;;;;9.68;5.80;;;;;;;-145.41;100.00;58600.66;4964166;28;20517;-78
2023/05/06 01:53:01;;;;;;;13.27;5.72;;;;;;;-145.41;100.00;58600.66;4966605;28;20480;-78
2023/05/06 01:55:27;;;;;;;8.60;5.05;;;;;;;-145.41;100.00;58600.66;4968915;28;20058;-79
2023/05/06 01:57:54;;;;;;;10.65;5.95;;;;;;;-145.41;100.00;58600.66;4973953;28;20142;-78
2023/05/06 02:00:19;;;;;;;9.55;5.90;;;;;;;-145.41;100.00;58600.66;4964698;28;20030;-79
2023/05/06 02:02:46;;;;;;;11.40;5.65;;;;;;;-145.41;100.00;58600.66;4964400;28;20043;-79
2023/05/06 02:05:11;;;;;;;8.30;5.30;;;;;;;-145.41;100.00;58600.66;4964454;28;20105;-78
2023/05/06 02:07:42;;;;;;;10.55;5.50;;;;;;;-145.41;100.00;58600.66;4971076;28;20030;-78
2023/05/06 02:10:08;;;;;;;10.18;6.05;;;;;;;-145.41;100.00;58600.66;4963945;28;20035;-79
2023/05/06 02:12:35;;;;;;;10.75;6.38;;;;;;;-145.41;100.00;58600.66;4964239;28;20097;-78
2023/05/06 02:15:00;;;;;;;10.63;5.90;;;;;;;-145.41;100.00;58600.66;4964414;28;20031;-78
2023/05/06 02:17:26;;;;;;;11.73;6.30;;;;;;;-145.41;100.00;58600.66;4962733;28;20037;-78
2023/05/06 02:19:51;;;;;;;10.73;6.30;;;;;;;-145.41;100.00;58600.66;4964228;28;20046;-79
2023/05/06 02:22:16;;;;;;;11.27;5.72;;;;;;;-145.41;100.00;58600.66;4962635;28;20035;-79
2023/05/06 02:24:43;;;;;;;11.68;6.78;;;;;;;-145.41;100.00;58600.66;4980865;28;20575;-79
2023/05/06 02:27:08;;;;;;;8.18;5.45;;;;;;;-145.41;100.00;58600.66;4964462;28;20063;-78
2023/05/06 02:29:34;;;;;;;9.23;5.88;;;;;;;-145.41;100.00;58600.66;4965574;28;20498;-79
2023/05/06 02:31:59;;;;;;;11.85;6.50;;;;;;;-145.41;100.00;58600.66;4966018;28;20109;-78
2023/05/06 02:34:24;;;;;;;12.32;5.72;;;;;;;-145.41;100.00;58600.66;4965024;28;20130;-78
2023/05/06 02:36:50;;;;;;;8.13;5.32;;;;;;;-145.41;100.00;58600.66;4965684;28;20039;-79
2023/05/06 02:39:15;;;;;;;9.95;5.85;;;;;;;-145.41;100.00;58600.66;4979205;28;20062;-79
2023/05/06 02:41:40;;;;;;;8.50;5.15;;;;;;;-145.41;100.00;58600.66;4962691;28;20489;-76
2023/05/06 02:44:06;;;;;;;13.02;6.35;;;;;;;-145.41;100.00;58600.66;4964804;28;20050;-77
2023/05/06 02:46:32;;;;;;;10.82;6.93;;;;;;;-145.41;100.00;58600.66;4962506;28;20067;-77
2023/05/06 02:48:57;;;;;;;9.20;6.38;;;;;;;-145.41;100.00;58600.66;4965609;28;20043;-77
2023/05/06 02:51:22;;;;;;;10.80;6.35;;;;;;;-145.41;100.00;58600.66;4963377;28;20070;-77
2023/05/06 02:53:47;;;;;;;10.60;6.20;;;;;;;-145.41;100.00;58600.66;4960659;28;20039;-76
2023/05/06 02:56:13;;;;;;;10.77;5.82;;;;;;;-145.41;100.00;58600.66;4962855;28;20027;-77
2023/05/06 02:58:38;;;;;;;8.90;5.85;;;;;;;-145.41;100.00;58600.66;4961364;28;20059;-77
2023/05/06 03:01:03;;;;;;;9.32;5.25;;;;;;;-145.41;100.00;58600.66;4964661;28;20046;-76
2023/05/06 03:03:29;;;;;;;8.77;5.45;;;;;;;-145.41;100.00;58600.66;4968199;28;20039;-77
2023/05/06 03:05:54;;;;;;;8.80;5.70;;;;;;;-145.41;100.00;58600.66;4969720;28;20110;-77
2023/05/06 03:08:20;;;;;;;12.88;5.55;;;;;;;-145.41;100.00;58600.66;4960062;28;20031;-77
2023/05/06 03:10:45;;;;;;;11.80;5.90;;;;;;;-145.41;100.00;58600.66;4963467;28;20037;-77
2023/05/06 03:13:11;;;;;;;11.75;6.50;;;;;;;-145.41;100.00;58600.66;4976136;28;20066;-77
2023/05/06 03:15:37;;;;;;;14.35;6.00;;;;;;;-145.41;100.00;58600.66;4963379;28;20460;-77
2023/05/06 03:18:02;;;;;;;9.07;5.90;;;;;;;-145.41;100.00;58600.66;4964078;28;20122;-77
2023/05/06 03:20:28;;;;;;;11.05;5.72;;;;;;;-145.41;100.00;58600.66;4963272;28;20058;-77
2023/05/06 03:22:57;;;;;;;8.70;6.28;;;;;;;-145.41;100.00;58600.66;4962603;28;20026;-76
2023/05/06 03:25:23;;;;;;;9.38;5.60;;;;;;;-145.41;100.00;58600.66;4965982;28;20061;-76
2023/05/06 03:27:49;;;;;;;11.07;6.60;;;;;;;-145.41;100.00;58600.66;4968984;28;20031;-77
2023/05/06 03:30:20;;;;;;;10.52;6.53;;;;;;;-145.41;100.00;58600.66;4965851;28;20066;-77
2023/05/06 03:32:47;;;;;;;9.77;5.88;;;;;;;-145.41;100.00;58600.66;4962891;28;20475;-77
2023/05/06 03:35:18;;;;;;;8.13;6.07;;;;;;;-145.41;100.00;58600.66;4960355;28;20451;-77
2023/05/06 03:37:47;;;;;;;12.95;7.15;;;;;;;-145.41;100.00;58600.66;4964431;28;20109;-76
2023/05/06 03:40:13;;;;;;;9.88;6.47;;;;;;;-145.41;100.00;58600.66;4965186;28;20061;-76
2023/05/06 03:42:39;;;;;;;11.57;6.70;;;;;;;-145.41;100.00;58600.66;4963213;28;20505;-76
2023/05/06 03:45:06;;;;;;;9.10;5.53;;;;;;;-145.41;100.00;58600.66;4966914;28;20027;-76
2023/05/06 03:47:32;;;;;;;9.85;6.43;;;;;;;-145.41;100.00;58600.66;4970240;28;20406;-76
2023/05/06 03:49:58;;;;;;;12.18;5.80;;;;;;;-145.41;100.00;58600.66;4960100;28;20039;-76
2023/05/06 03:52:24;;;;;;;8.43;5.70;;;;;;;-145.41;100.00;58600.66;4965988;28;20041;-77
2023/05/06 03:54:50;;;;;;;8.60;5.70;;;;;;;-145.41;100.00;58600.66;4953758;28;20030;-77
2023/05/06 03:57:16;;;;;;;8.27;5.80;;;;;;;-145.41;100.00;58600.66;4960609;28;20038;-77
2023/05/06 03:59:42;;;;;;;11.20;6.88;;;;;;;-145.41;100.00;58600.66;4961621;28;20031;-76
2023/05/06 04:02:07;;;;;;;10.52;6.40;;;;;;;-145.41;100.00;58600.66;4960889;28;20046;-76
2023/05/06 04:04:35;;;;;;;9.35;6.25;;;;;;;-145.41;100.00;58600.66;4963227;28;20038;-77
2023/05/06 04:07:00;;;;;;;10.70;7.13;;;;;;;-145.41;100.00;58600.66;4964317;28;20039;-77
2023/05/06 04:09:26;;;;;;;11.30;7.05;;;;;;;-145.41;100.00;58600.66;4968770;28;20049;-77
2023/05/06 04:11:52;;;;;;;9.57;6.07;;;;;;;-145.41;100.00;58600.66;4965373;28;20520;-77
2023/05/06 04:14:18;;;;;;;10.85;6.45;;;;;;;-145.41;100.00;58600.66;4957611;28;20035;-77
2023/05/06 04:16:43;;;;;;;13.90;7.47;;;;;;;-145.41;100.00;58600.66;4965059;28;20039;-77
2023/05/06 04:19:09;;;;;;;8.90;6.85;;;;;;;-145.41;100.00;58600.66;4980440;28;20062;-77
2023/05/06 04:21:35;;;;;;;9.60;6.78;;;;;;;-145.41;100.00;58600.66;4974402;28;20062;-76
2023/05/06 04:24:05;;;;;;;9.85;6.75;;;;;;;-145.41;100.00;58600.66;4963504;28;20031;-76
2023/05/06 04:26:34;;;;;;;11.02;6.45;;;;;;;-145.41;100.00;58600.66;4963054;28;20030;-77
2023/05/06 04:29:00;;;;;;;8.57;6.18;;;;;;;-145.41;100.00;58600.66;4970827;28;20439;-77
2023/05/06 04:31:27;;;;;;;9.73;6.22;;;;;;;-145.41;100.00;58600.66;4985721;28;20031;-77
2023/05/06 04:33:54;;;;;;;9.73;6.50;;;;;;;-145.41;100.00;58600.66;4966556;28;20432;-77
2023/05/06 04:36:23;;;;;;;9.57;5.75;;;;;;;-145.41;100.00;58600.66;4965616;28;20033;-76
2023/05/06 04:39:05;;;;;;;11.18;6.78;;;;;;;-145.41;100.00;58600.66;4965652;28;20037;-77
2023/05/06 04:41:32;;;;;;;10.73;6.50;;;;;;;-145.41;100.00;58600.66;4981229;28;20615;-77
2023/05/06 04:43:57;;;;;;;10.45;6.47;;;;;;;-145.41;100.00;58600.66;4975340;28;20031;-76
2023/05/06 04:46:23;;;;;;;10.55;6.30;;;;;;;-145.41;100.00;58600.66;4966123;28;20490;-76
2023/05/06 04:48:49;;;;;;;9.93;6.57;;;;;;;-145.41;100.00;58600.66;4978529;28;20070;-77
2023/05/06 04:51:15;;;;;;;8.93;6.72;;;;;;;-145.41;100.00;58600.66;4975952;28;20043;-76
2023/05/06 04:53:41;;;;;;;10.07;7.35;;;;;;;-145.41;100.00;58600.66;4965524;28;20441;-77
2023/05/06 04:56:07;;;;;;;12.75;6.60;;;;;;;-145.41;100.00;58600.66;4964298;28;20046;-76
2023/05/06 04:58:33;;;;;;;8.23;6.10;;;;;;;-145.41;100.00;58600.66;4956783;28;20047;-76
2023/05/06 05:01:03;;;;;;;11.77;6.80;;;;;;;-145.41;100.00;58600.66;4980202;28;20043;-77
2023/05/06 05:03:28;;;;;;;10.05;7.18;;;;;;;-145.41;100.00;58600.66;4970294;28;20400;-77
2023/05/06 05:05:55;;;;;;;9.80;6.57;;;;;;;-145.41;100.00;58600.66;4971716;28;20485;-77
2023/05/06 05:08:20;;;;;;;11.55;6.57;;;;;;;-145.41;100.00;58600.66;4964037;28;20122;-77
2023/05/06 05:10:46;;;;;;;10.82;7.10;;;;;;;-145.41;100.00;58600.66;4964875;28;20038;-76
2023/05/06 05:13:16;;;;;;;10.38;7.20;;;;;;;-145.41;100.00;58600.66;4967625;28;20035;-77
2023/05/06 05:15:43;;;;;;;10.20;7.43;;;;;;;-145.41;100.00;58600.66;4962553;28;20486;-77
2023/05/06 05:18:09;;;;;;;10.55;7.25;;;;;;;-145.41;100.00;58600.66;4957354;28;20045;-77
2023/05/06 05:20:34;;;;;;;10.93;7.32;;;;;;;-145.41;100.00;58600.66;4972124;28;20030;-76
2023/05/06 05:23:03;;;;;;;12.20;6.80;;;;;;;-145.41;100.00;58600.66;4972999;28;20034;-77
2023/05/06 05:25:28;;;;;;;9.40;6.88;;;;;;;-145.41;100.00;58600.66;4965457;28;20027;-77
2023/05/06 05:27:54;;;;;;;10.73;7.40;;;;;;;-145.41;100.00;58600.66;4970085;28;20069;-77
2023/05/06 05:30:19;;;;;;;15.13;7.93;;;;;;;-145.41;100.00;58600.66;4981100;28;20038;-77
2023/05/06 05:32:45;;;;;;;14.52;7.90;;;;;;;-145.41;100.00;58600.66;4964987;28;20081;-77
2023/05/06 05:35:12;;;;;;;11.55;7.85;;;;;;;-145.41;100.00;58600.66;4968055;28;20125;-76
2023/05/06 05:37:40;;;;;;;14.32;8.20;;;;;;;-145.41;100.00;58600.66;4964237;28;20030;-76
2023/05/06 05:40:07;;;;;;;11.80;8.30;;;;;;;-145.41;100.00;58600.66;4962649;28;20074;-77
2023/05/06 05:42:35;;;;;;;13.50;8.52;;;;;;;-145.41;100.00;58600.66;4963617;28;20043;-77
2023/05/06 05:45:06;;;;;;;10.23;7.60;;;;;;;-145.41;100.00;58600.66;4963890;28;20501;-77
2023/05/06 05:47:31;;;;;;;15.65;9.70;;;;;;;-145.41;100.00;58600.66;4979650;28;20098;-77
2023/05/06 05:49:57;;;;;;;12.27;9.25;;;;;;;-145.41;100.00;58600.66;4965220;28;20409;-76
2023/05/06 05:52:23;;;;;;;12.25;8.82;;;;;;;-145.41;100.00;58600.66;4962298;28;20042;-77
2023/05/06 05:54:48;;;;;;;13.07;8.73;;;;;;;-145.41;100.00;58600.66;4967578;28;20044;-76
2023/05/06 05:57:14;;;;;;;12.65;8.77;;;;;;;-145.41;100.00;58600.66;4972625;28;20034;-77
2023/05/06 05:59:40;;;;;;;13.18;10.32;;;;;;;-145.41;100.00;58600.66;4961404;28;20039;-77
2023/05/06 06:02:06;;;;;;;13.50;9.60;;;;;;;-145.41;100.00;58600.66;4965817;28;20414;-76
2023/05/06 06:04:31;;;;;;;11.05;7.72;;;;;;;-145.41;100.00;58600.66;4964899;28;20039;-77
2023/05/06 06:06:57;;;;;;;15.65;9.80;;;;;;;-145.41;100.00;58600.66;4964515;28;20047;-76
2023/05/06 06:09:23;;;;;;;13.65;8.77;;;;;;;-145.41;100.00;58600.66;4980489;28;20050;-76
2023/05/06 06:11:50;;;;;;;11.57;9.07;;;;;;;-145.41;100.00;58600.66;4969374;28;20549;-76
2023/05/06 06:14:15;;;;;;;19.58;10.65;;;;;;;-145.41;100.00;58600.66;4964376;28;20034;-77
2023/05/06 06:16:41;;;;;;;14.25;9.63;;;;;;;-145.41;100.00;58600.66;4965619;28;20035;-77
2023/05/06 06:19:06;;;;;;;16.40;9.73;;;;;;;-145.41;100.00;58600.66;4963834;28;20035;-77
2023/05/06 06:21:32;;;;;;;14.90;10.35;;;;;;;-145.41;100.00;58600.66;4964100;28;20409;-77
2023/05/06 06:23:58;;;;;;;15.13;9.90;;;;;;;-145.41;100.00;58600.66;4961378;28;20541;-76
2023/05/06 06:26:23;;;;;;;17.00;12.15;;;;;;;-145.41;100.00;58600.66;4968714;28;20478;-76
2023/05/06 06:28:48;;;;;;;18.65;11.15;;;;;;;-145.41;100.00;58600.66;4965183;28;20097;-77
2023/05/06 06:31:14;;;;;;;22.63;11.95;;;;;;;-145.41;100.00;58600.66;4963416;28;20429;-76
2023/05/06 06:33:39;;;;;;;15.02;10.13;;;;;;;-145.41;100.00;58600.66;4955546;28;20390;-76
2023/05/06 06:36:05;;;;;;;21.13;12.20;;;;;;;-145.41;100.00;58600.66;4964485;28;20115;-77
2023/05/06 06:38:30;;;;;;;21.75;12.68;;;;;;;-145.41;100.00;58600.66;4962782;28;20039;-77
2023/05/06 06:40:56;;;;;;;18.25;11.10;;;;;;;-145.41;100.00;58600.66;4965225;28;20183;-76
2023/05/06 06:43:23;;;;;;;16.38;11.68;;;;;;;-145.41;100.00;58600.66;4965213;28;20039;-76
2023/05/06 06:45:55;;;;;;;18.60;12.57;;;;;;;-145.41;100.00;58600.66;4961871;28;20073;-77
2023/05/06 06:48:20;;;;;;;20.85;11.38;;;;;;;-145.41;100.00;58600.66;4964024;28;20454;-76
2023/05/06 06:50:46;;;;;;;29.65;15.10;;;;;;;-145.41;100.00;58600.66;4963931;28;20130;-77
2023/05/06 06:53:11;;;;;;;24.00;13.27;;;;;;;-145.41;100.00;58600.66;4965294;28;20026;-76
2023/05/06 06:55:37;;;;;;;24.83;15.82;;;;;;;-145.41;100.00;58600.66;4960602;28;20502;-77
2023/05/06 06:58:02;;;;;;;27.25;14.30;;;;;;;-145.41;100.00;58600.66;4964041;28;20484;-76
2023/05/06 07:00:27;;;;;;;26.70;14.77;;;;;;;-145.41;100.00;58600.66;4965010;28;20070;-77
2023/05/06 07:02:53;;;;;;;25.27;14.48;;;;;;;-145.41;100.00;58600.66;4967430;28;20031;-77
2023/05/06 07:05:18;;;;;;;29.73;18.05;;;;;;;-145.41;100.00;58600.66;4962034;28;20038;-77
2023/05/06 07:07:44;;;;;;;27.05;15.30;;;;;;;-145.41;100.00;58600.66;4971415;28;20433;-76
2023/05/06 07:10:09;;;;;;;27.73;16.98;;;;;;;-145.41;100.00;58600.66;4968170;28;20449;-77
2023/05/06 07:12:35;;;;;;;31.42;18.90;;;;;;;-145.41;100.00;58600.66;4968858;28;20492;-76
2023/05/06 07:15:03;;;;;;;27.75;16.08;;;;;;;-145.41;100.00;58600.66;4961568;28;20097;-78
2023/05/06 07:17:29;;;;;;;23.73;15.48;;;;;;;-145.41;100.00;58600.66;4961007;28;20457;-76
2023/05/06 07:19:54;;;;;;;28.67;18.80;;;;;;;-145.41;100.00;58600.66;4964591;28;20161;-77
2023/05/06 07:22:19;;;;;;;24.55;16.30;;;;;;;-145.41;100.00;58600.66;4965028;28;20077;-77
2023/05/06 07:24:44;;;;;;;28.17;18.33;;;;;;;-145.41;100.00;58600.66;4963395;28;20109;-77
2023/05/06 07:27:10;;;;;;;27.75;18.40;;;;;;;-145.41;100.00;58600.66;4963791;28;20038;-77
2023/05/06 07:29:36;;;;;;;28.02;19.55;;;;;;;-145.41;100.00;58600.66;4964518;28;20406;-76
2023/05/06 07:32:02;;;;;;;28.23;17.35;;;;;;;-145.41;100.00;58600.66;4964170;28;20084;-77
2023/05/06 07:34:27;;;;;;;29.75;17.73;;;;;;;-145.41;100.00;58600.66;4965823;28;20523;-77
2023/05/06 07:36:53;;;;;;;28.40;17.27;;;;;;;-145.41;100.00;58600.66;4961649;28;20114;-77
2023/05/06 07:39:18;;;;;;;29.88;17.17;;;;;;;-145.41;100.00;58600.66;4962304;28;20049;-77
2023/05/06 07:41:44;;;;;;;26.42;18.73;;;;;;;-145.41;100.00;58600.66;4960300;28;20035;-77
2023/05/06 07:44:09;;;;;;;25.30;16.52;;;;;;;-145.41;100.00;58600.66;4970253;28;20050;-77
2023/05/06 07:46:35;;;;;;;22.73;16.88;;;;;;;-145.41;100.00;58600.66;4969729;28;20038;-77
2023/05/06 07:49:00;;;;;;;26.38;17.60;;;;;;;-145.41;100.00;58600.66;4968068;28;20517;-77
2023/05/06 07:51:25;;;;;;;22.70;17.00;;;;;;;-145.41;100.00;58600.66;4969753;28;20105;-77
2023/05/06 07:53:51;;;;;;;24.80;18.00;;;;;;;-145.41;100.00;58600.66;4971129;28;20425;-77
2023/05/06 07:56:17;;;;;;;26.02;18.98;;;;;;;-145.41;100.00;58600.66;4972887;28;20047;-77
2023/05/06 07:58:42;;;;;;;27.88;18.35;;;;;;;-145.41;100.00;58600.66;4974043;28;20030;-77
2023/05/06 08:01:07;;;;;;;25.85;18.17;;;;;;;-145.41;100.00;58600.66;4975597;28;20039;-77
2023/05/06 08:03:33;;;;;;;26.67;19.42;;;;;;;-145.41;100.00;58600.66;4974645;28;20034;-77
2023/05/06 08:05:59;;;;;;;28.15;21.00;;;;;;;-145.41;100.00;58600.66;4971012;28;20497;-77
2023/05/06 08:08:27;;;;;;;26.00;18.75;;;;;;;-145.41;100.00;58600.66;4972361;28;20043;-77
2023/05/06 08:10:56;;;;;;;28.30;18.83;;;;;;;-145.41;100.00;58600.66;4969002;28;20043;-77
2023/05/06 08:13:22;;;;;;;28.30;19.02;;;;;;;-145.41;100.00;58600.66;4967889;28;20031;-77
2023/05/06 08:15:47;;;;;;;29.15;20.73;;;;;;;-145.41;100.00;58600.66;4971252;28;20508;-77
2023/05/06 08:18:13;;;;;;;32.15;19.73;;;;;;;-145.41;100.00;58600.66;4972924;28;20034;-77
2023/05/06 08:20:39;;;;;;;26.05;17.30;;;;;;;-145.41;100.00;58600.66;4967263;28;20074;-77
2023/05/06 08:23:05;;;;;;;29.48;18.88;;;;;;;-145.41;100.00;58600.66;4970312;28;20059;-77
2023/05/06 08:25:30;;;;;;;34.92;21.48;;;;;;;-145.41;100.00;58600.66;4970776;28;20120;-77
2023/05/06 08:27:55;;;;;;;28.02;18.60;;;;;;;-145.41;100.00;58600.66;4968954;28;20556;-77
2023/05/06 08:30:21;;;;;;;31.67;19.42;;;;;;;-145.41;100.00;58600.66;4970662;28;20502;-77
2023/05/06 08:32:46;;;;;;;27.55;18.50;;;;;;;-145.41;100.00;58600.66;4969270;28;20485;-77
2023/05/06 08:35:12;;;;;;;26.60;17.20;;;;;;;-145.41;100.00;58600.66;4971964;28;20062;-77
2023/05/06 08:37:37;;;;;;;28.52;19.13;;;;;;;-145.41;100.00;58600.66;4970859;28;20039;-77
2023/05/06 08:40:04;;;;;;;28.67;17.55;;;;;;;-145.41;100.00;58600.66;4967211;28;20039;-77
2023/05/06 08:42:30;;;;;;;26.73;20.65;;;;;;;-145.41;100.00;58600.66;4970325;28;20089;-77
2023/05/06 08:44:57;;;;;;;27.90;18.40;;;;;;;-145.41;100.00;58600.66;4967165;28;20045;-77
2023/05/06 08:47:22;;;;;;;25.58;18.52;;;;;;;-145.41;100.00;58600.66;4970421;28;20031;-77
2023/05/06 08:49:48;;;;;;;28.70;19.23;;;;;;;-145.41;100.00;58600.66;4969541;28;20049;-75
2023/05/06 08:52:13;;;;;;;29.52;19.98;;;;;;;-145.41;100.00;58600.66;4970477;28;20039;-75
2023/05/06 08:54:40;;;;;;;30.05;18.80;;;;;;;-145.41;100.00;58600.66;4965941;28;20074;-75
2023/05/06 08:57:12;;;;;;;30.42;19.10;;;;;;;-145.41;100.00;58600.66;4973314;28;20030;-75
2023/05/06 08:59:39;;;;;;;28.98;17.75;;;;;;;-145.41;100.00;58600.66;4967237;28;20035;-75
2023/05/06 09:02:05;;;;;;;29.08;18.50;;;;;;;-145.41;100.00;58600.66;4964892;28;20037;-75
2023/05/06 09:04:30;;;;;;;25.98;17.80;;;;;;;-145.41;100.00;58600.66;4970167;28;20425;-76
2023/05/06 09:06:57;;;;;;;28.10;17.88;;;;;;;-145.41;100.00;58600.66;4967203;28;20061;-75
2023/05/06 09:09:23;;;;;;;25.65;17.08;;;;;;;-145.41;100.00;58600.66;4963746;28;20035;-75
2023/05/06 09:11:54;;;;;;;23.90;17.92;;;;;;;-145.41;100.00;58600.66;4965305;28;20104;-75
2023/05/06 09:14:20;;;;;;;27.67;18.60;;;;;;;-145.41;100.00;58600.66;4963953;28;20050;-75
2023/05/06 09:16:48;;;;;;;26.55;18.17;;;;;;;-145.41;100.00;58600.66;4966863;28;20044;-75
2023/05/06 09:19:15;;;;;;;26.15;19.60;;;;;;;-145.41;100.00;58600.66;4965951;28;20482;-75
2023/05/06 09:21:43;;;;;;;24.10;18.65;;;;;;;-145.41;100.00;58600.66;4964068;28;20686;-75
2023/05/06 09:24:10;;;;;;;25.40;18.27;;;;;;;-145.41;100.00;58600.66;4968316;28;20039;-75
2023/05/06 09:26:38;;;;;;;26.13;17.50;;;;;;;-145.41;100.00;58600.66;4969706;28;20018;-75
2023/05/06 09:29:05;;;;;;;25.08;17.98;;;;;;;-145.41;100.00;58600.66;4964404;28;20038;-75
2023/05/06 09:31:30;;;;;;;25.98;17.40;;;;;;;-145.41;100.00;58600.66;4964156;28;20044;-75
2023/05/06 09:33:57;;;;;;;26.00;18.02;;;;;;;-145.41;100.00;58600.66;4966825;28;20039;-75
2023/05/06 09:36:25;;;;;;;28.20;18.58;;;;;;;-145.41;100.00;58600.66;4969044;28;20457;-76
2023/05/06 09:38:52;;;;;;;27.15;17.63;;;;;;;-145.41;100.00;58600.66;4966270;28;20458;-77
2023/05/06 09:41:19;;;;;;;30.63;18.25;;;;;;;-145.41;100.00;58600.66;4953860;29;20114;-77
2023/05/06 09:43:47;;;;;;;24.90;19.25;;;;;;;-145.41;100.00;58600.66;4966644;28;20395;-77
2023/05/06 09:46:14;;;;;;;25.85;18.35;;;;;;;-145.41;100.00;58600.66;4963102;28;20542;-77
2023/05/06 09:48:40;;;;;;;27.70;18.45;;;;;;;-145.41;100.00;58600.66;4969359;28;20043;-77
2023/05/06 09:51:06;;;;;;;26.90;18.95;;;;;;;-145.41;100.00;58600.66;4963174;28;20035;-76
2023/05/06 09:53:36;;;;;;;28.95;19.38;;;;;;;-145.41;100.00;58600.66;4965462;28;20043;-77
2023/05/06 09:56:03;;;;;;;25.15;17.38;;;;;;;-145.41;100.00;58600.66;4963952;28;20035;-77
2023/05/06 09:58:31;;;;;;;24.48;17.73;;;;;;;-145.41;100.00;58600.66;4968074;28;20461;-77
2023/05/06 10:00:56;;;;;;;28.17;18.88;;;;;;;-145.41;100.00;58600.66;4964509;28;20031;-77
2023/05/06 10:03:22;;;;;;;23.20;16.92;;;;;;;-145.41;100.00;58600.66;4965394;28;20046;-77
2023/05/06 10:05:48;;;;;;;30.25;17.98;;;;;;;-145.41;100.00;58600.66;4965417;28;20035;-77
2023/05/06 10:08:17;;;;;;;23.83;17.48;;;;;;;-145.41;100.00;58600.66;4966928;28;20081;-76
2023/05/06 10:10:44;;;;;;;27.80;19.17;;;;;;;-145.41;100.00;58600.66;4980106;28;20038;-77
2023/05/06 10:13:09;;;;;;;26.30;18.35;;;;;;;-145.41;100.00;58600.66;4968433;28;20093;-77
2023/05/06 10:15:37;;;;;;;29.00;17.25;;;;;;;-145.41;100.00;58600.66;4962361;28;20039;-77
2023/05/06 10:18:04;;;;;;;27.45;17.60;;;;;;;-145.41;100.00;58600.66;4964572;28;20046;-77
2023/05/06 10:20:32;;;;;;;24.00;16.25;;;;;;;-145.41;100.00;58600.66;4970866;28;20219;-76
2023/05/06 10:23:21;;;;;;;27.85;18.73;;;;;;;-145.41;100.00;58600.66;4962824;28;20035;-76
2023/05/06 10:25:50;;;;;;;32.28;18.65;;;;;;;-145.41;100.00;58600.66;4958963;28;20035;-78
2023/05/06 10:28:17;;;;;;;23.50;16.52;;;;;;;-145.41;100.00;58600.66;4962823;28;20046;-76
2023/05/06 10:30:43;;;;;;;27.30;17.88;;;;;;;-145.41;100.00;58600.66;4964498;28;20077;-77
2023/05/06 10:33:10;;;;;;;26.08;17.80;;;;;;;-145.41;100.00;58600.66;4968148;28;20034;-77
2023/05/06 10:35:57;;;;;;;24.15;16.00;;;;;;;-145.41;100.00;58600.66;4963111;28;20079;-77
2023/05/06 10:38:35;;;;;;;25.70;17.67;;;;;;;-145.41;100.00;58600.66;4962122;28;20031;-77
2023/05/06 10:41:01;;;;;;;27.98;16.63;;;;;;;-145.41;100.00;58600.66;4965436;28;20509;-76
2023/05/06 10:43:32;;;;;;;22.63;15.63;;;;;;;-145.41;100.00;58600.66;4966396;28;20046;-77
2023/05/06 10:46:02;;;;;;;28.63;17.40;;;;;;;-145.41;100.00;58600.66;4979731;28;20555;-77
2023/05/06 10:48:28;;;;;;;26.60;16.13;;;;;;;-145.41;100.00;58600.66;4961421;28;20046;-77
2023/05/06 10:51:12;;;;;;;23.52;16.08;;;;;;;-145.41;100.00;58600.66;4965141;28;20122;-77
2023/05/06 10:54:01;;;;;;;25.42;16.40;;;;;;;-145.41;100.00;58600.66;4967301;28;20038;-77
2023/05/06 10:56:28;;;;;;;23.35;15.77;;;;;;;-145.41;100.00;58600.66;4967123;28;20035;-77
2023/05/06 10:58:54;;;;;;;22.75;15.88;;;;;;;-145.41;100.00;58600.66;4962505;28;20038;-77